Rock Creek, Iowa
Current Conditions -  °F | °C
As of 2:15 PM on Thursday 18 Dec 2014 (Local Time) from KCCY Reporting Station
Overcast Overcast  
Wind Chill: 23°   Ceiling: 1300
Heat Index: 23°   Visibility: 9mi
Dew Point: 18°   Wind: 0mph
Humidity: 80%   Direction: NA
Pressure: 30.24"   Gusts: NA
Location:  43.2938°N, 92.8135°W
Report Text: KCCY 182015Z AUTO 00000KT 9SM OVC013 M05/M08 A3024 RMK AO2
Loading
Personal Weather Stations






























Interactive Weather Map New forecast layout! Learn more

10-Day Weather Forecast

Advertisements
Track Severe Weather on mobile